createdAt,value
2023-02-25T00:28:42.147Z,997.48
2023-02-25T00:29:22.571Z,997.47
2023-02-25T00:30:03.066Z,997.42
2023-02-25T00:30:43.688Z,997.4
2023-02-25T00:31:24.198Z,997.38
2023-02-25T00:32:04.658Z,997.36
2023-02-25T00:32:45.064Z,997.34
2023-02-25T00:33:25.472Z,997.4
2023-02-25T00:34:05.983Z,997.37
2023-02-25T00:34:46.413Z,997.44
2023-02-25T00:35:26.885Z,997.39
2023-02-25T00:36:07.363Z,997.36
2023-02-25T00:36:47.902Z,997.41
2023-02-25T00:37:28.310Z,997.4
2023-02-25T00:38:15.582Z,997.39
2023-02-25T00:38:49.248Z,997.39
2023-02-25T00:39:29.837Z,997.35
2023-02-25T00:40:10.254Z,997.43
2023-02-25T00:40:50.743Z,997.39
2023-02-25T00:41:31.290Z,997.38
2023-02-25T00:42:11.742Z,997.41
2023-02-25T00:42:52.213Z,997.44
2023-02-25T00:43:32.744Z,997.4
2023-02-25T00:44:13.283Z,997.38
2023-02-25T00:44:53.711Z,997.45
2023-02-25T00:45:34.185Z,997.38
2023-02-25T00:46:14.759Z,997.41
2023-02-25T00:46:55.160Z,997.38
2023-02-25T00:48:16.171Z,997.38
2023-02-25T00:48:56.723Z,997.46
2023-02-25T00:49:37.151Z,997.38
2023-02-25T00:50:17.624Z,997.47
2023-02-25T00:50:58.094Z,997.44
2023-02-25T00:51:38.578Z,997.47
2023-02-25T00:52:19.080Z,997.48
2023-02-25T00:52:59.596Z,997.47
2023-02-25T00:53:40.041Z,997.48
2023-02-25T00:54:20.504Z,997.48
2023-02-25T00:55:01.002Z,997.44
2023-02-25T00:55:41.494Z,997.4
2023-02-25T00:56:22.231Z,997.52
2023-02-25T00:57:02.444Z,997.48
2023-02-25T00:58:23.483Z,997.51
2023-02-25T00:59:03.931Z,997.5
2023-02-25T00:59:44.472Z,997.54
2023-02-25T01:00:24.949Z,997.49
2023-02-25T01:01:05.400Z,997.5
2023-02-25T01:01:45.937Z,997.44
2023-02-25T01:02:26.404Z,997.44
2023-02-25T01:03:06.839Z,997.39
2023-02-25T01:03:47.341Z,997.41
2023-02-25T01:04:27.829Z,997.5
2023-02-25T01:05:08.331Z,997.5
2023-02-25T01:05:48.837Z,997.5
2023-02-25T01:06:29.330Z,997.45
2023-02-25T01:07:09.878Z,997.46
2023-02-25T01:07:50.364Z,997.48
2023-02-25T01:08:30.852Z,997.37
2023-02-25T01:09:11.352Z,997.38
2023-02-25T01:09:51.831Z,997.44
2023-02-25T01:10:32.319Z,997.39
2023-02-25T01:11:12.807Z,997.4
2023-02-25T01:11:53.343Z,997.4
2023-02-25T01:12:33.781Z,997.41
2023-02-25T01:13:14.277Z,997.41
2023-02-25T01:13:54.751Z,997.37
2023-02-25T01:14:35.296Z,997.44
2023-02-25T01:15:15.755Z,997.49
2023-02-25T01:15:56.238Z,997.43
2023-02-25T01:16:36.793Z,997.45
2023-02-25T01:17:17.216Z,997.39
2023-02-25T01:17:57.678Z,997.42
2023-02-25T01:18:38.167Z,997.43
2023-02-25T01:19:18.671Z,997.46
2023-02-25T01:19:59.166Z,997.42
2023-02-25T01:20:39.653Z,997.43
2023-02-25T01:21:20.139Z,997.44
2023-02-25T01:22:00.631Z,997.46
2023-02-25T01:22:41.143Z,997.49
2023-02-25T01:23:21.630Z,997.43
2023-02-25T01:24:02.136Z,997.42
2023-02-25T01:24:42.637Z,997.43
2023-02-25T01:26:03.622Z,997.38
2023-02-25T01:26:44.093Z,997.41
2023-02-25T01:27:24.595Z,997.39
2023-02-25T01:28:05.088Z,997.43
2023-02-25T01:28:45.617Z,997.4
2023-02-25T01:29:26.062Z,997.41
2023-02-25T01:30:06.539Z,997.38
2023-02-25T01:30:47.083Z,997.36
2023-02-25T01:31:27.575Z,997.33
2023-02-25T01:32:08.111Z,997.34
2023-02-25T01:32:48.523Z,997.39
2023-02-25T01:33:28.970Z,997.33
2023-02-25T01:34:09.451Z,997.37
2023-02-25T01:34:49.915Z,997.38
2023-02-25T01:35:30.387Z,997.39
2023-02-25T01:36:10.848Z,997.33
2023-02-25T01:36:51.358Z,997.35
2023-02-25T01:37:31.831Z,997.35
2023-02-25T01:38:12.345Z,997.34
2023-02-25T01:38:52.875Z,997.37
2023-02-25T01:39:33.326Z,997.32
2023-02-25T01:40:13.797Z,997.37
2023-02-25T01:40:54.294Z,997.35
2023-02-25T01:41:34.768Z,997.33
2023-02-25T01:44:48.438Z,997.35
2023-02-25T01:45:28.987Z,997.35
2023-02-25T01:46:09.520Z,997.37
2023-02-25T01:46:50.010Z,997.34
2023-02-25T01:47:30.457Z,997.44
2023-02-25T01:48:10.941Z,997.42
2023-02-25T01:48:51.427Z,997.43
2023-02-25T01:49:31.919Z,997.42
2023-02-25T01:50:12.410Z,997.44
2023-02-25T01:51:33.340Z,997.44
2023-02-25T01:52:13.818Z,997.43
2023-02-25T01:52:54.328Z,997.49
2023-02-25T01:53:34.811Z,997.43
2023-02-25T01:54:15.368Z,997.47
2023-02-25T01:54:55.831Z,997.49
2023-02-25T01:55:36.298Z,997.45
2023-02-25T01:56:16.807Z,997.44
2023-02-25T01:56:57.309Z,997.43
2023-02-25T01:57:37.736Z,997.45
2023-02-25T01:58:18.923Z,997.46
2023-02-25T01:58:59.407Z,997.45
2023-02-25T01:59:39.894Z,997.42
2023-02-25T02:00:20.374Z,997.48
2023-02-25T02:01:41.421Z,997.54
2023-02-25T02:02:21.881Z,997.52
2023-02-25T02:03:02.964Z,997.5
2023-02-25T02:03:42.830Z,997.44
2023-02-25T02:04:23.328Z,997.48
2023-02-25T02:05:03.816Z,997.52
2023-02-25T02:05:44.310Z,997.5
2023-02-25T02:06:24.989Z,997.49
2023-02-25T02:07:05.214Z,997.5
2023-02-25T02:07:45.734Z,997.48
2023-02-25T02:08:26.281Z,997.47
2023-02-25T02:09:06.695Z,997.48
2023-02-25T02:09:47.167Z,997.48
2023-02-25T02:10:27.654Z,997.48
2023-02-25T02:11:48.613Z,997.43
2023-02-25T02:12:29.095Z,997.39
2023-02-25T02:13:09.564Z,997.38
2023-02-25T02:13:50.041Z,997.45
2023-02-25T02:14:30.527Z,997.41
2023-02-25T02:15:11.027Z,997.43
2023-02-25T02:15:51.538Z,997.43
2023-02-25T02:16:32.097Z,997.44
2023-02-25T02:17:12.491Z,997.45
2023-02-25T02:17:52.994Z,997.43
2023-02-25T02:18:33.522Z,997.39
2023-02-25T02:19:13.948Z,997.38
2023-02-25T02:19:54.434Z,997.44
2023-02-25T02:20:34.966Z,997.44
2023-02-25T02:21:15.451Z,997.4
2023-02-25T02:21:55.930Z,997.41
2023-02-25T02:22:36.410Z,997.39
2023-02-25T02:23:16.878Z,997.35
2023-02-25T02:23:57.367Z,997.42
2023-02-25T02:24:37.860Z,997.38
2023-02-25T02:25:18.360Z,997.45
2023-02-25T02:25:58.873Z,997.44
2023-02-25T02:26:39.354Z,997.49
2023-02-25T02:27:19.820Z,997.44
2023-02-25T02:28:00.330Z,997.42
2023-02-25T02:28:40.819Z,997.4
2023-02-25T02:29:21.288Z,997.4
2023-02-25T02:30:01.771Z,997.4
2023-02-25T02:30:42.333Z,997.44
2023-02-25T02:31:22.701Z,997.46
2023-02-25T02:32:03.287Z,997.41
2023-02-25T02:32:43.770Z,997.45
2023-02-25T02:33:24.119Z,997.44
2023-02-25T02:34:04.599Z,997.44
2023-02-25T02:34:45.079Z,997.44
2023-02-25T02:35:25.542Z,997.46
2023-02-25T02:36:06.008Z,997.44
2023-02-25T02:36:46.531Z,997.39
2023-02-25T02:37:27.001Z,997.39
2023-02-25T02:38:07.476Z,997.43
2023-02-25T02:38:47.999Z,997.39
2023-02-25T02:39:28.482Z,997.42
2023-02-25T02:40:08.946Z,997.36
2023-02-25T02:40:49.462Z,997.45
2023-02-25T02:41:29.903Z,997.37
2023-02-25T02:42:10.374Z,997.47
2023-02-25T02:43:31.410Z,997.43
2023-02-25T02:44:11.829Z,997.4
2023-02-25T02:44:52.299Z,997.45
2023-02-25T02:45:32.823Z,997.43
2023-02-25T02:46:13.301Z,997.44
2023-02-25T02:46:53.787Z,997.51
2023-02-25T02:47:34.270Z,997.51
2023-02-25T02:48:14.791Z,997.52
2023-02-25T02:48:55.266Z,997.51
2023-02-25T02:49:35.772Z,997.44
2023-02-25T02:50:16.229Z,997.46
2023-02-25T02:50:56.708Z,997.38
2023-02-25T02:51:37.203Z,997.47
2023-02-25T02:52:17.715Z,997.42
2023-02-25T02:53:38.652Z,997.47
2023-02-25T02:54:19.162Z,997.52
2023-02-25T02:54:59.660Z,997.47
2023-02-25T02:55:40.135Z,997.46
2023-02-25T02:56:20.908Z,997.48
2023-02-25T02:57:01.100Z,997.44
2023-02-25T02:57:41.587Z,997.41
2023-02-25T02:58:22.077Z,997.5
2023-02-25T02:59:02.602Z,997.46
2023-02-25T02:59:43.306Z,997.46
2023-02-25T03:00:23.521Z,997.46
2023-02-25T03:01:04.087Z,997.49
2023-02-25T03:01:44.485Z,997.5
2023-02-25T03:02:24.979Z,997.51
2023-02-25T03:05:23.559Z,997.54
2023-02-25T03:06:04.056Z,997.54
2023-02-25T03:06:44.506Z,997.51
2023-02-25T03:07:24.982Z,997.55
2023-02-25T03:08:05.531Z,997.52
2023-02-25T03:08:46.074Z,997.59
2023-02-25T03:09:26.573Z,997.58
2023-02-25T03:10:07.089Z,997.51
2023-02-25T03:11:28.122Z,997.58
2023-02-25T03:12:08.599Z,997.53
2023-02-25T03:12:49.067Z,997.62
2023-02-25T03:13:29.538Z,997.65
2023-02-25T03:14:10.042Z,997.62
2023-02-25T03:14:50.515Z,997.63
2023-02-25T03:15:30.954Z,997.63
2023-02-25T03:16:11.447Z,997.64
2023-02-25T03:16:51.993Z,997.6
2023-02-25T03:17:32.430Z,997.54
2023-02-25T03:18:12.954Z,997.55
2023-02-25T03:18:53.434Z,997.56
2023-02-25T03:19:33.954Z,997.5
2023-02-25T03:20:14.444Z,997.56
2023-02-25T03:21:35.446Z,997.56
2023-02-25T03:22:15.926Z,997.62
2023-02-25T03:22:56.384Z,997.6
2023-02-25T03:23:36.999Z,997.58
2023-02-25T03:24:17.410Z,997.6
2023-02-25T03:24:57.956Z,997.56
2023-02-25T03:25:38.385Z,997.56
2023-02-25T03:26:18.902Z,997.5
2023-02-25T03:26:59.413Z,997.51
2023-02-25T03:27:39.946Z,997.5
2023-02-25T03:28:20.398Z,997.46
2023-02-25T03:29:00.871Z,997.57
2023-02-25T03:29:41.445Z,997.48
2023-02-25T03:30:22.781Z,997.46
2023-02-25T03:31:43.880Z,997.51
2023-02-25T03:32:24.333Z,997.52
2023-02-25T03:33:04.686Z,997.55
2023-02-25T03:33:45.187Z,997.53
2023-02-25T03:34:25.639Z,997.53
2023-02-25T03:35:06.135Z,997.52
2023-02-25T03:35:46.624Z,997.52
2023-02-25T03:36:27.110Z,997.53
2023-02-25T03:37:07.591Z,997.58
2023-02-25T03:37:48.104Z,997.59
2023-02-25T03:38:28.553Z,997.62
2023-02-25T03:39:09.034Z,997.64
2023-02-25T03:39:49.517Z,997.68
2023-02-25T03:40:30.008Z,997.69
2023-02-25T03:41:10.492Z,997.64
2023-02-25T03:41:50.999Z,997.62
2023-02-25T03:42:31.445Z,997.61
2023-02-25T03:43:11.926Z,997.59
2023-02-25T03:43:52.402Z,997.65
2023-02-25T03:44:32.921Z,997.64
2023-02-25T03:45:13.434Z,997.68
2023-02-25T03:45:53.944Z,997.66
2023-02-25T03:46:34.507Z,997.66
2023-02-25T03:47:14.879Z,997.63
2023-02-25T03:47:55.394Z,997.65
2023-02-25T03:48:35.927Z,997.64
2023-02-25T03:49:16.412Z,997.68
2023-02-25T03:49:56.890Z,997.66
2023-02-25T03:50:37.432Z,997.68
2023-02-25T03:51:17.895Z,997.71
2023-02-25T03:51:59.101Z,997.63
2023-02-25T03:52:39.558Z,997.7
2023-02-25T03:53:20.039Z,997.72
2023-02-25T03:54:00.510Z,997.69
2023-02-25T03:54:41.110Z,997.67
2023-02-25T03:55:21.527Z,997.73
2023-02-25T03:56:02.099Z,997.7
2023-02-25T03:56:42.597Z,997.6
2023-02-25T03:57:23.029Z,997.66
2023-02-25T03:58:03.507Z,997.66
2023-02-25T03:59:24.505Z,997.61
2023-02-25T04:00:04.944Z,997.68
2023-02-25T04:00:45.404Z,997.72
2023-02-25T04:01:25.896Z,997.72
2023-02-25T04:02:06.389Z,997.75
2023-02-25T04:02:46.992Z,997.75
2023-02-25T04:03:27.373Z,997.71
2023-02-25T04:04:07.914Z,997.72
2023-02-25T04:04:48.418Z,997.7
2023-02-25T04:05:28.896Z,997.76
2023-02-25T04:06:09.410Z,997.74
2023-02-25T04:06:49.921Z,997.77
2023-02-25T04:07:30.418Z,997.74
2023-02-25T04:08:10.940Z,997.77
2023-02-25T04:08:51.412Z,997.73
2023-02-25T04:09:31.960Z,997.77
2023-02-25T04:10:12.407Z,997.75
2023-02-25T04:10:52.955Z,997.75
2023-02-25T04:11:33.402Z,997.75
2023-02-25T04:12:13.922Z,997.81
2023-02-25T04:12:54.413Z,997.72
2023-02-25T04:13:34.945Z,997.73
2023-02-25T04:14:15.392Z,997.8
2023-02-25T04:14:55.885Z,997.81
2023-02-25T04:15:36.476Z,997.71
2023-02-25T04:16:16.921Z,997.77
2023-02-25T04:16:57.515Z,997.75
2023-02-25T04:17:38.013Z,997.82
2023-02-25T04:18:18.527Z,997.86
2023-02-25T04:18:59.023Z,997.82
2023-02-25T04:19:39.522Z,997.85
2023-02-25T04:20:20.005Z,997.86
2023-02-25T04:21:00.463Z,997.9
2023-02-25T04:21:41.008Z,997.84
2023-02-25T04:22:21.442Z,997.75
2023-02-25T04:23:01.945Z,997.83
2023-02-25T04:23:42.404Z,997.81
2023-02-25T04:24:22.902Z,997.81
2023-02-25T04:25:03.382Z,997.82
2023-02-25T04:25:43.893Z,997.84
2023-02-25T04:26:24.705Z,997.86
2023-02-25T04:27:04.917Z,997.8
2023-02-25T04:27:45.377Z,997.85
2023-02-25T04:28:25.873Z,997.79
2023-02-25T04:29:06.396Z,997.81
2023-02-25T04:29:46.812Z,997.86
2023-02-25T04:30:27.383Z,997.9
2023-02-25T04:31:07.948Z,997.87
2023-02-25T04:31:48.517Z,997.88
2023-02-25T04:32:28.955Z,997.81
2023-02-25T04:33:09.329Z,997.77
2023-02-25T04:33:49.920Z,997.79
2023-02-25T04:34:30.325Z,997.78
2023-02-25T04:35:10.813Z,997.76
2023-02-25T04:35:51.311Z,997.77
2023-02-25T04:36:31.787Z,997.83
2023-02-25T04:37:12.334Z,997.81
2023-02-25T04:37:52.798Z,997.81
2023-02-25T04:38:33.326Z,997.78
2023-02-25T04:39:13.825Z,997.88
2023-02-25T04:39:54.288Z,997.87
2023-02-25T04:40:34.781Z,997.91
2023-02-25T04:41:15.262Z,997.91
2023-02-25T04:41:55.762Z,997.94
2023-02-25T04:42:36.236Z,997.98
2023-02-25T04:43:16.731Z,997.95
2023-02-25T04:44:37.717Z,998.02
2023-02-25T04:45:18.196Z,997.96
2023-02-25T04:45:58.653Z,997.97
2023-02-25T04:46:39.214Z,997.94
2023-02-25T04:47:19.650Z,997.94
2023-02-25T04:48:00.129Z,997.93
2023-02-25T04:48:40.593Z,997.93
2023-02-25T04:49:21.109Z,997.94
2023-02-25T04:50:01.548Z,997.97
2023-02-25T04:50:42.095Z,997.98
2023-02-25T04:51:22.549Z,997.93
2023-02-25T04:52:03.023Z,997.92
2023-02-25T04:52:43.507Z,997.9
2023-02-25T04:53:24.003Z,997.86
2023-02-25T04:54:04.530Z,997.85
2023-02-25T04:54:44.999Z,997.89
2023-02-25T04:55:25.484Z,997.87
2023-02-25T04:56:05.997Z,997.91
2023-02-25T04:56:46.482Z,997.9
2023-02-25T04:57:26.929Z,997.91
2023-02-25T04:58:07.449Z,997.88
2023-02-25T04:58:47.873Z,997.75
2023-02-25T04:59:28.332Z,997.84
2023-02-25T05:00:08.808Z,997.83
2023-02-25T05:00:49.367Z,997.93
2023-02-25T05:01:29.805Z,997.88
2023-02-25T05:02:10.337Z,997.93
2023-02-25T05:02:50.759Z,997.9
2023-02-25T05:03:31.255Z,997.93
2023-02-25T05:04:11.711Z,997.93
2023-02-25T05:04:52.323Z,997.9
2023-02-25T05:05:32.687Z,997.95
2023-02-25T05:06:13.144Z,997.94
2023-02-25T05:06:53.651Z,997.95
2023-02-25T05:07:34.119Z,997.92
2023-02-25T05:08:14.586Z,997.9
2023-02-25T05:08:55.163Z,997.87
2023-02-25T05:09:35.591Z,997.89
2023-02-25T05:10:16.045Z,997.87
2023-02-25T05:10:56.537Z,997.87
2023-02-25T05:11:37.021Z,997.85
2023-02-25T05:12:17.511Z,997.88
2023-02-25T05:14:45.345Z,997.79
2023-02-25T05:16:58.490Z,997.88
2023-02-25T05:17:38.952Z,997.8
2023-02-25T05:18:19.454Z,997.85
2023-02-25T05:18:59.925Z,997.82
2023-02-25T05:19:40.383Z,997.87
2023-02-25T05:20:20.982Z,997.86
2023-02-25T05:21:01.369Z,997.83
2023-02-25T05:21:41.918Z,997.88
2023-02-25T05:22:22.322Z,997.91
2023-02-25T05:23:02.798Z,997.86
2023-02-25T05:23:43.298Z,997.83
2023-02-25T05:24:24.051Z,997.82
2023-02-25T05:25:04.267Z,997.85
2023-02-25T05:25:44.758Z,997.89
2023-02-25T05:26:25.508Z,997.88
2023-02-25T05:27:05.685Z,997.86
2023-02-25T05:27:46.179Z,997.87
2023-02-25T05:28:26.671Z,997.91
2023-02-25T05:29:48.580Z,997.91
2023-02-25T05:30:29.023Z,997.76
2023-02-25T05:31:09.594Z,997.91
2023-02-25T05:31:50.147Z,997.91
2023-02-25T05:32:30.695Z,997.89
2023-02-25T05:33:10.917Z,997.9
2023-02-25T05:33:51.428Z,997.84
2023-02-25T05:34:31.923Z,997.85
2023-02-25T05:35:12.430Z,997.84
2023-02-25T05:35:52.944Z,997.89
2023-02-25T05:36:33.437Z,997.79
2023-02-25T05:37:13.920Z,997.8
2023-02-25T05:37:54.437Z,997.83
2023-02-25T05:38:34.926Z,997.8
2023-02-25T05:39:15.475Z,997.83
2023-02-25T05:39:55.866Z,997.81
2023-02-25T05:40:36.373Z,997.76
2023-02-25T05:41:16.855Z,997.75
2023-02-25T05:41:57.337Z,997.81
2023-02-25T05:42:37.856Z,997.81
2023-02-25T05:43:18.290Z,997.83
2023-02-25T05:43:58.773Z,997.83
2023-02-25T05:44:39.297Z,997.84
2023-02-25T05:45:19.739Z,997.86
2023-02-25T05:46:00.220Z,997.81
2023-02-25T05:47:21.239Z,997.75
2023-02-25T05:48:01.739Z,997.77
2023-02-25T05:48:42.180Z,997.87
2023-02-25T05:49:22.659Z,997.85
2023-02-25T05:50:03.116Z,997.72
2023-02-25T05:50:43.921Z,997.83
2023-02-25T05:51:24.128Z,997.87
2023-02-25T05:52:04.669Z,997.85
2023-02-25T05:52:45.084Z,997.79
2023-02-25T05:53:25.605Z,997.75
2023-02-25T05:54:06.057Z,997.87
2023-02-25T06:31:06.585Z,998.23
2023-02-25T06:31:47.106Z,998.18
2023-02-25T06:32:27.602Z,998.12
2023-02-25T06:33:08.052Z,998.15
2023-02-25T06:33:48.504Z,998.07
2023-02-25T06:34:28.966Z,998.07
2023-02-25T06:35:09.550Z,998.08
2023-02-25T06:35:49.992Z,997.96
2023-02-25T06:36:30.467Z,998.05
2023-02-25T06:37:10.955Z,998.01
2023-02-25T06:37:51.520Z,998.05
2023-02-25T06:38:31.949Z,998.04
2023-02-25T06:39:12.444Z,998.03
2023-02-25T06:39:52.957Z,998.07
2023-02-25T06:40:33.473Z,998.03
2023-02-25T06:41:14.027Z,998.02
2023-02-25T06:41:54.528Z,998.03
2023-02-25T06:42:34.983Z,998.01
2023-02-25T06:43:15.465Z,998.01
2023-02-25T06:43:55.917Z,998.11
2023-02-25T06:44:36.411Z,998.07
2023-02-25T06:45:16.978Z,998.17
2023-02-25T06:45:57.555Z,998.15
2023-02-25T06:46:38.007Z,998.09
2023-02-25T06:47:18.466Z,998.12
2023-02-25T06:47:58.975Z,998.21
2023-02-25T06:48:39.494Z,998.19
2023-02-25T06:49:19.974Z,998.31
2023-02-25T06:50:40.965Z,998.32
2023-02-25T06:51:21.459Z,998.31
2023-02-25T06:52:02.458Z,998.37
2023-02-25T06:52:42.972Z,998.33
2023-02-25T06:53:23.458Z,998.37
2023-02-25T06:54:03.967Z,998.31
2023-02-25T06:54:44.475Z,998.38
2023-02-25T06:55:24.934Z,998.39
2023-02-25T06:56:05.473Z,998.43
2023-02-25T06:56:45.930Z,998.43
2023-02-25T06:58:06.937Z,998.37
2023-02-25T06:58:47.465Z,998.42
2023-02-25T06:59:27.919Z,998.37
2023-02-25T07:00:08.445Z,998.33
2023-02-25T07:00:48.944Z,998.43
2023-02-25T07:01:29.455Z,998.39
2023-02-25T07:02:09.962Z,998.4
2023-02-25T07:02:50.434Z,998.45
2023-02-25T07:03:30.885Z,998.42
2023-02-25T07:04:11.518Z,998.41
2023-02-25T07:04:51.941Z,998.43
2023-02-25T07:05:32.417Z,998.43
2023-02-25T07:06:12.892Z,998.42
2023-02-25T07:06:53.360Z,998.49
2023-02-25T07:07:33.894Z,998.45
2023-02-25T07:08:14.377Z,998.54
2023-02-25T07:08:54.881Z,998.59
2023-02-25T07:09:35.347Z,998.63
2023-02-25T07:10:15.878Z,998.59
2023-02-25T07:10:56.377Z,998.61
2023-02-25T07:11:36.857Z,998.67
2023-02-25T07:12:17.333Z,998.65
2023-02-25T07:12:57.842Z,998.67
2023-02-25T07:13:38.338Z,998.66
2023-02-25T07:14:18.862Z,998.61
2023-02-25T07:15:39.906Z,998.73
2023-02-25T07:16:20.403Z,998.71
2023-02-25T07:17:00.858Z,998.75
2023-02-25T07:17:41.353Z,998.75
2023-02-25T07:18:21.859Z,998.66
2023-02-25T07:19:02.489Z,998.67
2023-02-25T07:19:42.862Z,998.66
2023-02-25T07:20:23.352Z,998.71
2023-02-25T07:21:03.846Z,998.7
2023-02-25T07:21:44.304Z,998.66
2023-02-25T07:22:24.786Z,998.67
2023-02-25T07:23:05.316Z,998.72
2023-02-25T07:23:45.784Z,998.68
2023-02-25T07:24:26.267Z,998.73
2023-02-25T07:25:47.253Z,998.79
2023-02-25T07:26:27.730Z,998.8
2023-02-25T07:27:08.201Z,998.78
2023-02-25T07:27:48.703Z,998.78
2023-02-25T07:28:29.208Z,998.81
2023-02-25T07:29:09.730Z,998.77
2023-02-25T07:29:50.202Z,998.8
2023-02-25T07:30:30.728Z,998.82
2023-02-25T07:31:11.348Z,998.82
2023-02-25T07:31:51.947Z,998.74
2023-02-25T07:32:32.331Z,998.81
2023-02-25T07:33:12.723Z,998.84
2023-02-25T07:33:53.135Z,998.83
2023-02-25T07:34:33.621Z,998.86
2023-02-25T07:35:14.092Z,998.85
2023-02-25T07:35:54.635Z,998.86
2023-02-25T07:36:35.098Z,998.85
2023-02-25T07:37:15.573Z,998.85
2023-02-25T07:37:56.064Z,998.86
2023-02-25T07:38:36.553Z,998.84
2023-02-25T07:39:17.062Z,998.84
2023-02-25T07:39:57.586Z,998.85
2023-02-25T07:40:38.022Z,998.87
2023-02-25T07:41:18.497Z,998.85
2023-02-25T07:41:58.989Z,998.83
2023-02-25T07:42:39.485Z,998.84
2023-02-25T07:43:19.978Z,998.83
2023-02-25T07:44:00.488Z,998.81
2023-02-25T07:44:41.004Z,998.81
2023-02-25T07:45:21.535Z,998.87
2023-02-25T07:46:02.146Z,998.87
2023-02-25T07:46:42.540Z,998.81
2023-02-25T07:47:23.066Z,998.87
2023-02-25T07:48:03.531Z,998.86
2023-02-25T07:48:44.082Z,998.82
2023-02-25T07:49:24.567Z,998.84
2023-02-25T07:50:05.049Z,998.8
2023-02-25T07:50:45.580Z,998.85
2023-02-25T07:51:26.916Z,998.85
2023-02-25T07:52:07.313Z,998.76
2023-02-25T07:52:47.806Z,998.84
2023-02-25T07:53:28.343Z,998.78
2023-02-25T07:54:08.783Z,998.83
2023-02-25T07:54:49.301Z,998.82
2023-02-25T07:56:10.240Z,998.77
2023-02-25T07:56:50.793Z,998.78
2023-02-25T07:57:31.260Z,998.79
2023-02-25T07:58:11.717Z,998.77
2023-02-25T07:58:52.206Z,998.78
2023-02-25T07:59:32.707Z,998.73
2023-02-25T08:00:13.228Z,998.76
2023-02-25T08:00:53.725Z,998.76
2023-02-25T08:01:34.255Z,998.74
2023-02-25T08:02:14.739Z,998.78
2023-02-25T08:03:35.776Z,998.81
2023-02-25T08:04:16.343Z,998.86
2023-02-25T08:04:56.775Z,998.84
2023-02-25T08:05:37.250Z,998.87
2023-02-25T08:06:17.790Z,998.84
2023-02-25T08:06:58.228Z,998.82
2023-02-25T08:07:38.748Z,998.78
2023-02-25T08:08:19.220Z,998.71
2023-02-25T08:08:59.715Z,998.85
2023-02-25T08:09:40.195Z,998.85
2023-02-25T08:10:20.694Z,998.8
2023-02-25T08:11:01.194Z,998.9
2023-02-25T08:11:41.737Z,998.89
2023-02-25T08:12:22.217Z,998.94
2023-02-25T08:13:02.677Z,998.88
2023-02-25T08:13:43.166Z,998.89
2023-02-25T08:14:23.687Z,998.97
2023-02-25T08:15:04.190Z,998.94
2023-02-25T08:15:44.709Z,998.97
2023-02-25T08:16:25.187Z,998.89
2023-02-25T08:17:05.645Z,998.9
2023-02-25T08:17:46.130Z,998.92
2023-02-25T08:19:07.126Z,998.95
2023-02-25T08:19:47.615Z,998.96
2023-02-25T08:20:28.144Z,998.93
2023-02-25T08:21:08.592Z,998.96
2023-02-25T08:21:49.010Z,998.96
2023-02-25T08:22:29.554Z,998.98
2023-02-25T08:23:10.011Z,999.02
2023-02-25T08:23:50.495Z,998.98
2023-02-25T08:24:30.980Z,998.98
2023-02-25T08:25:11.462Z,999.04
2023-02-25T08:25:51.959Z,998.97
2023-02-25T08:26:32.458Z,999.02
2023-02-25T08:27:12.929Z,998.96
2023-02-25T08:27:53.496Z,999
2023-02-25T08:28:37.003Z,999.04
2023-02-25T08:29:14.459Z,999
2023-02-25T08:29:54.940Z,999.02
2023-02-25T08:30:35.506Z,999.02
2023-02-25T08:31:56.607Z,998.99
2023-02-25T08:32:37.075Z,998.97
2023-02-25T08:33:17.389Z,998.97
2023-02-25T08:33:57.851Z,998.97
2023-02-25T08:34:38.355Z,998.99
2023-02-25T08:35:18.976Z,999.03
2023-02-25T08:35:59.461Z,999.06
2023-02-25T08:37:20.410Z,998.97
2023-02-25T08:38:00.873Z,998.96
2023-02-25T08:38:41.426Z,998.97
2023-02-25T08:39:21.898Z,998.92
2023-02-25T08:40:02.364Z,998.97
2023-02-25T08:40:42.876Z,999.07
2023-02-25T08:41:23.823Z,999
2023-02-25T08:42:03.817Z,998.99
2023-02-25T08:42:44.336Z,998.95
2023-02-25T08:43:24.800Z,998.93
2023-02-25T08:44:05.263Z,998.93
2023-02-25T08:44:45.746Z,998.97
2023-02-25T08:45:26.262Z,998.93
2023-02-25T08:46:06.871Z,998.99
2023-02-25T08:47:27.753Z,999.03
2023-02-25T08:48:08.922Z,999.1
2023-02-25T08:48:49.414Z,999.07
2023-02-25T08:49:29.892Z,999.04
2023-02-25T08:50:10.450Z,999.06
2023-02-25T08:50:50.943Z,999.11
2023-02-25T08:51:31.463Z,999.02
2023-02-25T08:52:11.975Z,999.03
2023-02-25T08:52:52.450Z,999.05
2023-02-25T08:53:32.937Z,998.94
2023-02-25T08:54:54.556Z,999.07
2023-02-25T08:55:35.392Z,999.06
2023-02-25T08:56:16.057Z,999.04
2023-02-25T08:58:18.994Z,999
2023-02-25T08:59:00.029Z,999.05
2023-02-25T08:59:40.526Z,999.06
2023-02-25T09:00:21.877Z,999.07
2023-02-25T09:01:03.098Z,999.02
2023-02-25T09:02:27.668Z,999.04
2023-02-25T09:03:08.511Z,999.06
2023-02-25T09:19:51.334Z,999.04
2023-02-25T09:20:31.746Z,999.02
2023-02-25T09:21:12.282Z,998.93
2023-02-25T09:21:52.780Z,998.98
2023-02-25T09:23:13.820Z,999
2023-02-25T09:23:54.304Z,998.97
2023-02-25T09:24:34.812Z,998.96
2023-02-25T09:25:15.356Z,998.98
2023-02-25T09:25:55.874Z,998.99
2023-02-25T09:26:36.356Z,998.93
2023-02-25T09:27:16.885Z,998.91
2023-02-25T09:27:57.337Z,998.85
2023-02-25T09:28:37.833Z,998.88
2023-02-25T09:29:18.392Z,998.94
2023-02-25T09:29:58.854Z,998.91
2023-02-25T09:30:39.322Z,998.94
2023-02-25T09:31:19.961Z,998.87
2023-02-25T09:32:00.482Z,998.85
2023-02-25T09:32:40.951Z,998.91
2023-02-25T09:33:21.368Z,998.9
2023-02-25T09:35:36.669Z,998.93
2023-02-25T09:44:58.967Z,999.15
2023-02-25T09:45:39.327Z,999.15
2023-02-25T09:46:19.901Z,999.15
2023-02-25T09:47:00.287Z,999.16
2023-02-25T09:47:40.819Z,999.22
2023-02-25T09:49:01.802Z,999.19
2023-02-25T09:49:42.301Z,999.17
2023-02-25T09:50:22.795Z,999.07
2023-02-25T09:51:03.487Z,999.2
2023-02-25T09:51:43.878Z,999.2
2023-02-25T09:52:24.313Z,999.26
2023-02-25T09:53:04.842Z,999.16
2023-02-25T09:53:45.288Z,999.21
2023-02-25T09:54:25.875Z,999.22
2023-02-25T09:55:06.294Z,999.29
2023-02-25T09:55:46.795Z,999.28
2023-02-25T09:56:27.289Z,999.33
2023-02-25T09:57:07.790Z,999.28
2023-02-25T09:57:48.260Z,999.27
2023-02-25T09:58:28.772Z,999.31
2023-02-25T09:59:09.285Z,999.28
2023-02-25T09:59:49.752Z,999.28
2023-02-25T10:00:30.275Z,999.31
2023-02-25T10:01:10.749Z,999.32
2023-02-25T10:01:51.246Z,999.28
2023-02-25T10:02:31.876Z,999.26
2023-02-25T10:03:12.353Z,999.29
2023-02-25T10:03:52.718Z,999.29
2023-02-25T10:04:33.305Z,999.3
2023-02-25T10:05:13.805Z,999.32
2023-02-25T10:05:54.288Z,999.35
2023-02-25T10:06:34.853Z,999.33
2023-02-25T10:07:15.359Z,999.42
2023-02-25T10:07:55.829Z,999.35
2023-02-25T10:08:36.342Z,999.4
2023-02-25T10:09:16.818Z,999.46
2023-02-25T10:09:57.281Z,999.44
2023-02-25T10:10:37.797Z,999.41
2023-02-25T10:11:18.281Z,999.44
2023-02-25T10:11:58.831Z,999.51
2023-02-25T10:12:39.277Z,999.46
2023-02-25T10:13:19.847Z,999.5
2023-02-25T10:14:00.433Z,999.47
2023-02-25T10:14:40.859Z,999.5
2023-02-25T10:15:21.355Z,999.52
2023-02-25T10:16:01.898Z,999.51
2023-02-25T10:16:42.562Z,999.4
2023-02-25T10:17:22.962Z,999.47
2023-02-25T10:18:03.533Z,999.42
2023-02-25T10:18:43.970Z,999.48
2023-02-25T10:19:24.483Z,999.52
2023-02-25T10:20:05.032Z,999.5
2023-02-25T10:20:45.613Z,999.52
2023-02-25T10:21:26.249Z,999.51
2023-02-25T10:22:06.638Z,999.56
2023-02-25T10:22:47.128Z,999.57
2023-02-25T10:23:27.648Z,999.59
2023-02-25T10:24:08.132Z,999.61
2023-02-25T10:24:48.640Z,999.5
2023-02-25T10:25:29.100Z,999.66
2023-02-25T10:26:09.674Z,999.68
2023-02-25T10:26:50.148Z,999.66
2023-02-25T10:27:32.940Z,999.65